Terminal Aerodrome Forecast
Issued by NWS Cleveland, OH

Home | Current Version | Previous Version | Text Only | Print | Product List | Glossary On
Versions: 1 2 3 4 5 6 7 8 9 10 11 12 13 14 15 16 17
000
FTUS41 KCLE 230531
TAFYNG
TAF
KYNG 230531Z 2306/2406 VRB03KT 5SM BR SCT023 BKN040
     FM230900 VRB03KT 3SM BR BKN015 BKN023
      TEMPO 2309/2312 BKN007 OVC015
     FM231300 VRB03KT 5SM BR SCT016 BKN020
     FM231600 25005KT P6SM SCT023 BKN035 PROB30 2316/2322 4SM TS
      BKN030CB
     FM240500 VRB03KT P6SM FEW021 SCT090=

USA.gov is the U.S. government's official web portal to all federal, state and local government web resources and services.